Time;durP1;ratioP1;P1;durP2;ratioP2;P2;SDS_P1;SDS_P2;PMS_P1;PMS_P2;Temp;Humidity;BMP_temperature;BMP_pressure;BME280_temperature;BME280_humidity;BME280_pressure;Samples;Min_cycle;Max_cycle;Signal;HPM_P1;HPM_P2
2022/05/20 07:59:24;;;;;;;12.60;8.38;;;;;;;17.94;67.23;101799.84;5279399;28;20746;-75
2022/05/20 08:01:56;;;;;;;12.05;8.25;;;;;;;18.01;66.91;101789.03;5280082;28;20064;-74
2022/05/20 08:04:53;;;;;;;8.75;7.85;;;;;;;18.08;66.46;101783.81;5260373;28;20022;-73
2022/05/20 08:07:48;;;;;;;8.57;7.32;;;;;;;18.19;65.79;101776.78;5238660;28;20072;-73
2022/05/20 08:10:22;;;;;;;8.95;7.50;;;;;;;18.22;63.58;101773.31;5242899;28;20400;-78
2022/05/20 08:12:53;;;;;;;9.00;6.60;;;;;;;18.38;64.57;101772.94;5259989;28;20022;-75
2022/05/20 08:15:26;;;;;;;8.82;6.80;;;;;;;18.41;63.24;101775.13;5238268;28;20083;-74
2022/05/20 08:17:57;;;;;;;8.50;6.47;;;;;;;18.51;62.39;101782.44;5238273;28;20497;-74
2022/05/20 08:20:30;;;;;;;9.32;7.72;;;;;;;18.49;62.39;101776.34;5239337;28;20107;-75
2022/05/20 08:23:01;;;;;;;14.60;8.90;;;;;;;18.58;61.82;101774.38;5259472;28;20100;-75
2022/05/20 08:25:35;;;;;;;9.75;7.82;;;;;;;18.57;61.67;101769.94;5259169;28;20171;-75
2022/05/20 08:28:06;;;;;;;10.75;8.20;;;;;;;18.79;62.57;101769.06;5252025;28;20017;-75
2022/05/20 08:30:44;;;;;;;9.60;8.60;;;;;;;18.73;62.29;101764.72;5242818;28;20041;-75
2022/05/20 08:33:18;;;;;;;8.85;7.85;;;;;;;18.66;61.74;101754.78;5253964;28;20112;-74
2022/05/20 08:35:50;;;;;;;9.32;7.72;;;;;;;18.76;61.91;101759.31;5239753;28;20091;-74
2022/05/20 08:38:24;;;;;;;10.35;7.65;;;;;;;18.78;61.80;101750.56;5254175;28;20067;-74
2022/05/20 08:40:58;;;;;;;10.82;8.15;;;;;;;18.74;62.83;101739.13;5242269;28;20026;-77
2022/05/20 08:43:32;;;;;;;7.70;6.90;;;;;;;18.81;63.17;101728.25;5255795;28;20033;-87
2022/05/20 08:46:08;;;;;;;10.95;9.75;;;;;;;18.74;62.70;101715.78;5251882;28;20025;-79
2022/05/20 08:48:42;;;;;;;10.10;8.93;;;;;;;18.77;63.19;101707.59;5237213;28;20033;-77
2022/05/20 08:51:13;;;;;;;11.05;8.73;;;;;;;18.95;62.79;101705.66;5237972;28;20045;-80
2022/05/20 08:53:47;;;;;;;11.02;9.65;;;;;;;19.01;62.73;101698.72;5240581;28;20029;-76
2022/05/20 08:56:23;;;;;;;11.27;10.18;;;;;;;19.02;62.38;101691.97;5255465;28;20025;-75
2022/05/20 08:59:21;;;;;;;12.70;8.73;;;;;;;19.21;63.28;101699.28;5249944;28;20031;-76
2022/05/20 09:01:53;;;;;;;10.95;9.65;;;;;;;19.14;62.47;101716.63;5237502;28;20121;-76
2022/05/20 09:04:25;;;;;;;13.05;11.73;;;;;;;19.21;63.76;101713.34;5251308;28;20117;-77
2022/05/20 09:07:08;;;;;;;13.38;10.65;;;;;;;19.10;64.07;101693.97;5258271;28;20076;-76
2022/05/20 09:09:45;;;;;;;11.40;9.98;;;;;;;19.22;64.30;101684.06;5245627;28;20588;-76
2022/05/20 09:12:32;;;;;;;15.10;12.20;;;;;;;19.19;64.08;101687.53;5236295;28;20041;-77
2022/05/20 09:18:11;;;;;;;10.23;9.18;;;;;;;19.42;62.94;101672.16;5244713;28;20045;-79
2022/05/20 09:20:52;;;;;;;12.10;10.70;;;;;;;19.53;62.81;101667.03;5243164;28;20026;-78
2022/05/20 09:23:26;;;;;;;12.50;11.15;;;;;;;19.54;61.96;101660.28;5243557;28;20047;-78
2022/05/20 09:26:05;;;;;;;13.40;9.45;;;;;;;19.70;62.18;101660.63;5243637;28;20028;-79
2022/05/20 09:29:16;;;;;;;11.63;10.43;;;;;;;19.76;62.25;101645.22;5243350;28;20037;-79
2022/05/20 09:31:58;;;;;;;13.15;11.15;;;;;;;19.72;61.72;101624.53;5236171;28;20045;-79
2022/05/20 09:34:39;;;;;;;14.70;12.60;;;;;;;19.72;62.00;101625.38;5243654;28;20021;-79
2022/05/20 09:37:10;;;;;;;16.48;14.80;;;;;;;19.56;61.61;101629.81;5233068;28;20029;-79
2022/05/20 09:39:44;;;;;;;17.30;13.40;;;;;;;19.83;62.24;101622.19;5223243;28;20026;-78
2022/05/20 09:42:21;;;;;;;12.27;10.73;;;;;;;19.98;62.21;101608.41;5223557;28;20281;-78
2022/05/20 09:44:58;;;;;;;18.00;13.57;;;;;;;19.97;61.89;101611.59;5243156;28;20036;-78
2022/05/20 09:47:47;;;;;;;16.95;14.82;;;;;;;20.14;62.05;101605.06;5228172;28;20050;-77
2022/05/20 09:50:34;;;;;;;16.23;13.30;;;;;;;20.12;61.47;101585.69;5222122;28;20041;-78
2022/05/20 09:53:16;;;;;;;16.48;12.82;;;;;;;20.24;61.87;101570.06;5233281;28;20499;-77
2022/05/20 09:55:47;;;;;;;18.23;15.60;;;;;;;20.22;61.80;101566.75;5238997;28;20037;-77
2022/05/20 09:58:18;;;;;;;18.73;16.35;;;;;;;20.22;62.28;101573.22;5242158;28;20505;-78
2022/05/20 10:01:15;;;;;;;20.73;15.80;;;;;;;20.27;62.44;101558.94;5243567;28;20120;-75
2022/05/20 10:03:51;;;;;;;16.92;15.13;;;;;;;20.35;62.38;101546.84;5234514;28;20045;-74
2022/05/20 10:06:31;;;;;;;36.47;32.92;;;;;;;20.44;62.64;101534.69;5241812;28;20472;-77
2022/05/20 10:09:33;;;;;;;16.98;15.10;;;;;;;20.51;62.55;101523.72;5242780;28;20029;-75
2022/05/20 10:12:11;;;;;;;16.52;14.55;;;;;;;20.42;62.30;101524.56;5231182;28;20036;-74
2022/05/20 10:15:01;;;;;;;17.00;14.30;;;;;;;20.52;62.57;101512.09;5222623;28;20465;-77
2022/05/20 10:17:58;;;;;;;20.45;16.08;;;;;;;20.48;62.87;101505.50;5225065;28;20034;-73
2022/05/20 10:21:00;;;;;;;15.98;13.65;;;;;;;20.57;63.17;101506.28;5221181;28;20037;-74
2022/05/20 10:24:16;;;;;;;14.82;13.43;;;;;;;20.59;63.26;101497.50;5222317;28;20037;-74
2022/05/20 10:26:57;;;;;;;16.83;14.38;;;;;;;20.59;62.96;101484.22;5221642;28;20034;-74
2022/05/20 10:32:49;;;;;;;37.22;33.53;;;;;;;20.57;62.61;101471.66;5239271;28;20033;-74
2022/05/20 10:35:24;;;;;;;15.88;14.13;;;;;;;20.54;61.74;101469.50;5242425;28;20091;-74
2022/05/20 10:38:11;;;;;;;13.50;11.88;;;;;;;20.62;62.35;101463.00;5228705;28;20026;-75
2022/05/20 10:41:07;;;;;;;15.15;12.43;;;;;;;20.67;63.11;101447.88;5221270;28;20330;-75
2022/05/20 10:49:57;;;;;;;16.77;12.82;;;;;;;20.58;62.08;101403.69;5221867;28;20030;-75
2022/05/20 10:52:42;;;;;;;14.85;13.20;;;;;;;20.59;61.73;101396.06;5221864;28;20547;-77
2022/05/20 10:55:41;;;;;;;18.25;13.07;;;;;;;20.60;62.09;101380.78;5223075;28;20022;-76
2022/05/20 10:58:56;;;;;;;13.93;11.45;;;;;;;20.63;62.29;101369.66;5234762;28;20103;-75
2022/05/20 11:01:45;;;;;;;12.70;11.40;;;;;;;20.59;61.78;101354.59;5216420;28;20034;-76
2022/05/20 11:04:34;;;;;;;14.80;11.98;;;;;;;20.61;62.15;101346.63;5240742;28;20084;-75
2022/05/20 11:07:48;;;;;;;15.38;13.38;;;;;;;20.57;62.06;101325.13;5242338;28;20021;-75
2022/05/20 11:10:47;;;;;;;17.85;12.85;;;;;;;20.64;62.41;101311.31;5231962;28;20409;-76
2022/05/20 11:13:54;;;;;;;14.75;13.15;;;;;;;20.71;62.49;101308.75;5233733;28;20034;-75
2022/05/20 11:16:50;;;;;;;18.52;16.00;;;;;;;20.68;62.70;101300.97;5234470;28;20105;-78
2022/05/20 11:19:49;;;;;;;16.20;13.13;;;;;;;20.72;63.10;101296.31;5223348;28;20018;-77
2022/05/20 11:22:33;;;;;;;14.85;13.43;;;;;;;20.76;63.23;101293.59;5229879;28;20030;-77
2022/05/20 11:25:32;;;;;;;18.35;15.15;;;;;;;20.81;63.98;101296.19;5233994;28;20030;-84
2022/05/20 11:28:09;;;;;;;17.35;15.55;;;;;;;20.76;64.12;101277.53;5241747;28;20508;-81
2022/05/20 11:30:58;;;;;;;21.67;19.38;;;;;;;20.78;64.42;101275.16;5237385;28;20424;-85
2022/05/20 11:33:45;;;;;;;21.33;19.08;;;;;;;20.82;64.33;101281.75;5241688;28;20037;-82
2022/05/20 11:36:34;;;;;;;21.55;18.65;;;;;;;20.80;64.73;101288.91;5233453;28;20034;-75
2022/05/20 11:39:40;;;;;;;19.15;17.25;;;;;;;20.73;65.17;101269.75;5221765;28;20369;-71
2022/05/20 11:42:35;;;;;;;24.30;21.35;;;;;;;20.64;66.46;101271.84;5241960;28;20028;-74
2022/05/20 11:45:17;;;;;;;21.05;18.88;;;;;;;20.66;66.23;101272.34;5231995;28;20343;-74
2022/05/20 11:48:28;;;;;;;21.23;17.48;;;;;;;20.70;66.21;101262.00;5220613;28;20026;-77
2022/05/20 11:51:18;;;;;;;21.17;17.52;;;;;;;20.72;66.13;101248.38;5246112;28;20053;-75
2022/05/20 11:53:55;;;;;;;31.95;28.60;;;;;;;20.71;66.40;101221.41;5233034;28;20396;-76
2022/05/20 11:56:43;;;;;;;20.48;18.13;;;;;;;20.71;66.46;101212.94;5237717;28;20034;-75
2022/05/20 11:59:22;;;;;;;20.30;18.25;;;;;;;20.69;67.34;101223.72;5222432;28;20441;-77
2022/05/20 12:01:58;;;;;;;26.08;23.42;;;;;;;20.58;69.83;101237.44;5221395;28;20034;-75
2022/05/20 12:04:32;;;;;;;25.05;22.42;;;;;;;20.60;71.29;101268.91;5220173;28;20050;-76
2022/05/20 12:07:10;;;;;;;29.90;25.65;;;;;;;20.53;73.14;101279.06;5229230;28;20028;-75
2022/05/20 12:09:43;;;;;;;30.58;25.70;;;;;;;20.48;74.91;101248.28;5252644;28;20113;-77
2022/05/20 12:12:25;;;;;;;29.10;24.70;;;;;;;20.44;76.17;101207.91;5240075;28;20120;-77
2022/05/20 12:14:56;;;;;;;29.58;26.35;;;;;;;20.33;78.26;101210.34;5241413;28;20021;-77
2022/05/20 12:17:46;;;;;;;31.57;28.33;;;;;;;20.26;80.55;101205.28;5239647;28;20056;-74
2022/05/20 12:26:40;;;;;;;37.83;32.05;;;;;;;20.00;85.53;101208.34;5220661;28;20046;-75
2022/05/20 12:29:38;;;;;;;35.20;30.50;;;;;;;19.98;86.25;101190.97;5221807;28;20025;-76
2022/05/20 12:32:15;;;;;;;37.38;33.30;;;;;;;19.87;88.13;101170.88;5219493;28;20038;-76
2022/05/20 12:35:06;;;;;;;49.95;44.75;;;;;;;19.88;87.22;101152.81;5235423;28;20025;-75
2022/05/20 12:37:40;;;;;;;38.75;34.78;;;;;;;19.70;88.32;101145.69;5222009;28;20496;-76
2022/05/20 12:40:26;;;;;;;38.40;34.08;;;;;;;19.79;88.53;101109.88;5219777;28;20037;-77
2022/05/20 12:43:03;;;;;;;35.67;32.28;;;;;;;19.80;89.31;101089.00;5227168;28;20112;-74
2022/05/20 12:45:53;;;;;;;33.38;29.70;;;;;;;19.83;86.39;101107.19;5235714;28;20445;-75
2022/05/20 12:48:28;;;;;;;39.30;34.25;;;;;;;19.71;87.59;101105.13;5243788;28;20386;-75
2022/05/20 12:51:03;;;;;;;41.90;37.25;;;;;;;19.85;89.65;101125.38;5244618;28;20029;-74
2022/05/20 12:53:36;;;;;;;39.30;35.17;;;;;;;19.91;89.75;101129.59;5233332;28;20072;-75
2022/05/20 12:56:24;;;;;;;38.17;34.35;;;;;;;19.99;90.44;101158.81;5237848;28;20473;-76
2022/05/20 12:59:20;;;;;;;40.42;36.10;;;;;;;20.03;90.11;101175.88;5228784;28;20033;-76
2022/05/20 13:01:57;;;;;;;39.25;35.10;;;;;;;20.02;90.22;101171.38;5229892;28;20014;-74
2022/05/20 13:04:35;;;;;;;40.40;36.17;;;;;;;20.01;91.64;101172.56;5230694;28;20493;-77
2022/05/20 13:07:16;;;;;;;40.92;36.70;;;;;;;20.00;90.97;101162.50;5223423;28;20385;-75
2022/05/20 13:09:48;;;;;;;42.35;37.88;;;;;;;20.05;93.09;101165.09;5227623;28;20022;-75
2022/05/20 13:12:21;;;;;;;40.58;36.38;;;;;;;20.12;92.21;101173.78;5241437;28;20112;-76
2022/05/20 13:15:02;;;;;;;39.00;31.55;;;;;;;20.19;89.35;101151.50;5249420;28;20424;-74
2022/05/20 13:17:33;;;;;;;35.10;31.50;;;;;;;20.24;88.58;101142.84;5244153;28;20099;-74
2022/05/20 13:20:06;;;;;;;45.17;40.35;;;;;;;20.23;92.87;101158.09;5224549;28;20053;-74
2022/05/20 13:22:48;;;;;;;43.67;39.15;;;;;;;20.22;nan;101145.16;5222933;28;20037;-74
2022/05/20 13:25:20;;;;;;;43.95;39.45;;;;;;;20.27;93.88;101147.78;5238310;28;20504;-73
2022/05/20 13:27:51;;;;;;;47.40;42.35;;;;;;;20.37;95.27;101140.88;5243064;28;20041;-74
2022/05/20 13:30:30;;;;;;;41.20;36.92;;;;;;;20.33;94.33;101118.22;5243382;28;20033;-74
2022/05/20 13:33:05;;;;;;;41.35;37.08;;;;;;;20.32;95.58;101127.81;5224282;28;20053;-75
2022/05/20 13:35:53;;;;;;;44.28;39.80;;;;;;;20.36;95.01;101120.34;5231776;28;20101;-76
2022/05/20 13:38:28;;;;;;;38.97;34.85;;;;;;;20.32;94.83;101119.38;5230977;28;20060;-71
2022/05/20 13:41:00;;;;;;;36.20;32.63;;;;;;;20.26;95.16;101098.25;5223082;28;20026;-75
2022/05/20 13:43:35;;;;;;;37.13;33.47;;;;;;;20.27;96.01;101108.34;5227813;28;20381;-73
2022/05/20 13:49:18;;;;;;;31.42;28.42;;;;;;;20.08;95.57;101094.00;5223189;28;20126;-74
2022/05/20 13:51:57;;;;;;;29.20;26.52;;;;;;;20.07;96.18;101089.53;5231247;28;20025;-76
2022/05/20 13:54:40;;;;;;;24.83;22.33;;;;;;;20.00;94.91;101107.00;5248561;28;20438;-75
2022/05/20 13:57:15;;;;;;;17.92;16.17;;;;;;;19.93;93.34;101081.41;5240798;28;20144;-75
2022/05/20 13:59:49;;;;;;;18.52;16.65;;;;;;;19.87;93.12;101083.63;5242839;28;20025;-75
2022/05/20 14:02:21;;;;;;;15.20;13.70;;;;;;;19.89;93.37;101084.13;5240641;28;20050;-74
2022/05/20 14:04:54;;;;;;;13.48;11.98;;;;;;;19.93;92.65;101076.59;5239869;28;20365;-73
2022/05/20 14:07:36;;;;;;;13.05;11.10;;;;;;;19.97;92.55;101079.56;5243039;28;20079;-76
2022/05/20 14:10:31;;;;;;;12.15;9.25;;;;;;;20.00;91.42;101078.03;5223308;28;20038;-76
2022/05/20 14:13:12;;;;;;;6.18;5.60;;;;;;;20.00;89.28;101083.66;5226177;28;20105;-76
2022/05/20 14:15:52;;;;;;;5.55;4.28;;;;;;;20.09;88.67;101081.56;5222133;28;20025;-81
2022/05/20 14:18:40;;;;;;;4.35;3.95;;;;;;;20.16;88.91;101088.25;5230480;28;20425;-80
2022/05/20 14:21:14;;;;;;;7.82;4.28;;;;;;;20.17;89.19;101086.25;5242838;28;20100;-81
2022/05/20 14:23:50;;;;;;;4.00;3.47;;;;;;;20.15;88.48;101066.09;5231639;28;20061;-80
2022/05/20 14:26:35;;;;;;;4.75;3.53;;;;;;;20.13;88.57;101072.06;5221983;28;20088;-80
2022/05/20 14:29:14;;;;;;;4.55;4.13;;;;;;;20.07;89.31;101078.28;5233756;28;20026;-81
2022/05/20 14:31:53;;;;;;;11.68;10.35;;;;;;;20.03;89.15;101077.34;5241847;28;20396;-82
2022/05/20 14:34:44;;;;;;;5.13;3.85;;;;;;;19.95;88.74;101082.72;5238862;28;20025;-82
2022/05/20 14:37:23;;;;;;;3.90;2.83;;;;;;;19.90;89.22;101076.50;5232688;28;20041;-82
2022/05/20 14:40:06;;;;;;;4.20;3.80;;;;;;;19.90;89.76;101049.16;5240610;28;20545;-79
2022/05/20 15:08:09;;;;;;;18.70;17.23;;;;;;;19.38;94.07;101150.91;5234866;28;20069;-81
2022/05/20 15:10:41;;;;;;;17.58;16.00;;;;;;;19.07;91.75;101162.50;5246824;28;20064;-78
2022/05/20 15:13:13;;;;;;;18.83;17.23;;;;;;;18.54;91.46;101172.31;5255652;28;20029;-79
2022/05/20 15:15:45;;;;;;;20.17;18.40;;;;;;;18.20;93.93;101174.03;5263837;28;20041;-80
2022/05/20 15:18:17;;;;;;;19.08;17.48;;;;;;;17.77;92.21;101194.56;5254924;28;20047;-83
2022/05/20 15:20:52;;;;;;;19.30;17.55;;;;;;;17.37;91.90;101191.88;5249951;28;20100;-80
2022/05/20 15:23:31;;;;;;;18.48;16.67;;;;;;;17.55;91.74;101192.72;5244797;28;20029;-82
2022/05/20 15:26:06;;;;;;;17.58;16.17;;;;;;;17.67;91.80;101211.72;5243040;28;20025;-82
2022/05/20 15:28:56;;;;;;;18.67;17.00;;;;;;;17.47;90.39;101214.00;5245177;28;20036;-82
2022/05/20 15:37:38;;;;;;;14.43;13.07;;;;;;;17.08;90.12;101248.53;5245666;28;20033;-80
2022/05/20 15:40:44;;;;;;;20.63;18.83;;;;;;;16.96;89.36;101254.72;5226692;28;20032;-82
2022/05/20 15:50:28;;;;;;;8.77;7.75;;;;;;;16.77;84.05;101307.31;5167693;28;20502;-79
2022/05/20 15:53:09;;;;;;;8.32;6.07;;;;;;;16.49;84.66;101325.09;5166577;28;20034;-81
2022/05/20 15:55:49;;;;;;;10.43;9.45;;;;;;;16.46;83.35;101331.34;5238428;28;20065;-80
2022/05/20 15:58:36;;;;;;;10.70;9.57;;;;;;;16.49;84.15;101336.31;5239710;28;20037;-80
2022/05/20 16:01:07;;;;;;;7.90;6.07;;;;;;;16.24;83.10;101340.53;5235641;28;20036;-81
2022/05/20 16:03:38;;;;;;;6.22;4.70;;;;;;;16.14;82.27;101351.16;5238064;28;20041;-79
2022/05/20 16:06:14;;;;;;;6.22;4.47;;;;;;;15.90;83.18;101334.59;5240666;28;20037;-81
2022/05/20 16:08:46;;;;;;;;;;;;;;;16.02;83.17;101348.88;5242018;28;20030;-82
2022/05/20 16:11:24;;;;;;;5.03;4.35;;;;;;;16.15;83.54;101347.19;5242088;28;19963;-78
2022/05/20 16:13:56;;;;;;;6.40;4.93;;;;;;;16.38;82.32;101340.47;5242939;28;20039;-86
2022/05/20 16:16:28;;;;;;;4.43;3.70;;;;;;;16.51;81.05;101335.97;5248760;28;20089;-90
2022/05/20 16:19:00;;;;;;;6.20;4.88;;;;;;;16.74;81.27;101353.59;5248178;28;20025;-86
2022/05/20 16:21:32;;;;;;;4.72;2.85;;;;;;;16.61;78.93;101355.31;5256544;28;20029;-89
2022/05/20 16:24:06;;;;;;;3.10;2.70;;;;;;;16.37;78.52;101355.63;5252659;28;20045;-83
2022/05/20 16:26:41;;;;;;;6.10;3.58;;;;;;;16.50;79.36;101382.75;5244841;28;20074;-81
2022/05/20 16:29:12;;;;;;;3.37;2.83;;;;;;;16.46;79.63;101390.13;5245311;28;20030;-80
2022/05/20 16:31:43;;;;;;;3.60;3.30;;;;;;;16.19;79.79;101387.41;5245153;28;20613;-81
2022/05/20 16:34:15;;;;;;;4.95;3.00;;;;;;;16.36;79.61;101395.97;5245077;28;20083;-81
2022/05/20 16:36:50;;;;;;;4.03;3.08;;;;;;;16.23;79.25;101408.84;5245557;28;20104;-81
2022/05/20 16:39:21;;;;;;;4.97;2.85;;;;;;;16.11;79.29;101421.72;5245190;28;20021;-81
2022/05/20 16:41:55;;;;;;;4.15;3.25;;;;;;;16.01;80.59;101420.81;5244886;28;20099;-80
2022/05/20 16:44:27;;;;;;;3.30;3.03;;;;;;;16.05;80.64;101423.78;5245599;28;20042;-82
2022/05/20 16:46:59;;;;;;;4.00;2.88;;;;;;;16.25;80.91;101428.13;5244503;28;20080;-81
2022/05/20 16:49:36;;;;;;;4.55;3.58;;;;;;;16.30;79.69;101442.00;5243105;28;20112;-76
2022/05/20 16:52:09;;;;;;;3.88;3.47;;;;;;;16.07;79.55;101436.31;5244697;28;20478;-83
2022/05/20 16:54:50;;;;;;;5.22;4.22;;;;;;;16.15;80.33;101450.72;5224010;28;20042;-84
2022/05/20 17:03:03;;;;;;;7.30;6.50;;;;;;;15.61;82.42;101468.00;5247949;28;20021;-84
2022/05/20 17:05:35;;;;;;;8.15;7.38;;;;;;;15.57;82.13;101478.16;5251824;28;20032;-84
2022/05/20 17:08:06;;;;;;;8.98;7.00;;;;;;;15.42;82.76;101481.22;5247721;28;20053;-84
2022/05/20 17:10:41;;;;;;;7.60;6.90;;;;;;;15.26;81.91;101488.19;5247105;28;20032;-84
2022/05/20 17:13:31;;;;;;;7.13;6.30;;;;;;;15.24;81.88;101491.31;5246835;28;20021;-74
2022/05/20 17:16:02;;;;;;;9.57;6.38;;;;;;;15.31;80.92;101508.50;5244375;28;20025;-76
2022/05/20 17:18:57;;;;;;;7.45;6.63;;;;;;;15.23;80.98;101507.22;5244373;28;20033;-83
2022/05/20 17:24:22;;;;;;;7.78;6.70;;;;;;;15.29;82.24;101526.69;5245041;28;20064;-85
2022/05/20 17:27:00;;;;;;;8.88;7.93;;;;;;;15.10;82.03;101530.34;5224723;28;20044;-86
2022/05/20 17:29:35;;;;;;;10.63;9.13;;;;;;;14.91;82.20;101533.19;5226263;28;20437;-86
